This is the latest recevied weather packets stored in our database for station/object EA6MI-10. If no packets are shown the sender has not sent any weather packets the latest 1 day(s).
| Time | Temp. | Humidity | Pressure | Rain* | Wind** | Luminosity | Snow |
|---|---|---|---|---|---|---|---|
| 1778059515 | 20° C | 66% | 1006.6 hPa | - | - | - | - |
| 1778058615 | 19.44° C | 66% | 1006.6 hPa | - | - | - | - |
| 1778057715 | 19.44° C | 66% | 1006.4 hPa | - | - | - | - |
| 1778056815 | 18.89° C | 66% | 1006.5 hPa | - | - | - | - |
| 1778054114 | 17.78° C | 67% | 1005.3 hPa | - | - | - | - |
| 1778052314 | 18.33° C | 67% | 1006.4 hPa | - | - | - | - |
| 1778051414 | 17.78° C | 66% | 1006.4 hPa | - | - | - | - |
| 1778050514 | 17.78° C | 66% | 1006.6 hPa | - | - | - | - |
| 1778047812 | 17.78° C | 66% | 1006.5 hPa | - | - | - | - |
| 1778046912 | 17.78° C | 66% | 1006.4 hPa | - | - | - | - |
| 1778046012 | 18.33° C | 66% | 1006.3 hPa | - | - | - | - |
| 1778045112 | 18.33° C | 65% | 1006.1 hPa | - | - | - | - |
| 1778044212 | 18.33° C | 65% | 1006.1 hPa | - | - | - | - |
| 1778043312 | 18.33° C | 64% | 1005.9 hPa | - | - | - | - |
| 1778040611 | 18.89° C | 64% | 1005.7 hPa | - | - | - | - |
| 1778039711 | 18.89° C | 63% | 1006.1 hPa | - | - | - | - |
| 1778038811 | 18.89° C | 63% | 1005.5 hPa | - | - | - | - |
| 1778037911 | 18.89° C | 63% | 1004.8 hPa | - | - | - | - |
| 1778037011 | 19.44° C | 63% | 1005.3 hPa | - | - | - | - |
| 1778036111 | 19.44° C | 63% | 1005.2 hPa | - | - | - | - |
| 1778034310 | 20° C | 63% | 1005.2 hPa | - | - | - | - |
| 1778033410 | 20° C | 62% | 1005.1 hPa | - | - | - | - |
| 1778032510 | 20° C | 62% | 1005.3 hPa | - | - | - | - |
| 1778031610 | 20° C | 62% | 1005.3 hPa | - | - | - | - |
| 1778030710 | 20.56° C | 62% | 1005.4 hPa | - | - | - | - |
* Rain since midnight (hover to see other rain measurements)
** Current wind speed in m/s (hover to see current wind gust speed)